sensor_id;sensor_type;location;lat;lon;timestamp;temperature;humidity
34766;DHT22;20984;43.508;1.504;2023-04-07T00:00:25;6.90;99.90
34766;DHT22;20984;43.508;1.504;2023-04-07T00:02:51;6.90;99.90
34766;DHT22;20984;43.508;1.504;2023-04-07T00:05:17;6.80;99.90
34766;DHT22;20984;43.508;1.504;2023-04-07T00:07:42;6.70;99.90
34766;DHT22;20984;43.508;1.504;2023-04-07T00:10:08;6.70;99.90
34766;DHT22;20984;43.508;1.504;2023-04-07T00:12:34;6.60;99.90
34766;DHT22;20984;43.508;1.504;2023-04-07T00:15:00;6.60;99.90
34766;DHT22;20984;43.508;1.504;2023-04-07T00:17:26;6.50;99.90
34766;DHT22;20984;43.508;1.504;2023-04-07T00:19:52;6.50;99.90
34766;DHT22;20984;43.508;1.504;2023-04-07T00:22:17;6.50;99.90
34766;DHT22;20984;43.508;1.504;2023-04-07T00:24:43;6.40;99.90
34766;DHT22;20984;43.508;1.504;2023-04-07T00:27:09;6.40;99.90
34766;DHT22;20984;43.508;1.504;2023-04-07T00:29:34;6.30;99.90
34766;DHT22;20984;43.508;1.504;2023-04-07T00:32:00;6.20;99.90
34766;DHT22;20984;43.508;1.504;2023-04-07T00:34:26;6.20;99.90
34766;DHT22;20984;43.508;1.504;2023-04-07T00:36:51;6.20;99.90
34766;DHT22;20984;43.508;1.504;2023-04-07T00:39:18;6.10;99.90
34766;DHT22;20984;43.508;1.504;2023-04-07T00:41:45;6.10;99.90
34766;DHT22;20984;43.508;1.504;2023-04-07T00:44:11;6.00;99.90
34766;DHT22;20984;43.508;1.504;2023-04-07T00:46:37;6.00;99.90
34766;DHT22;20984;43.508;1.504;2023-04-07T00:49:02;6.00;99.90
34766;DHT22;20984;43.508;1.504;2023-04-07T00:51:28;6.00;99.90
34766;DHT22;20984;43.508;1.504;2023-04-07T00:53:56;5.90;99.90
34766;DHT22;20984;43.508;1.504;2023-04-07T00:56:21;5.90;99.90
34766;DHT22;20984;43.508;1.504;2023-04-07T00:58:47;5.90;99.90
34766;DHT22;20984;43.508;1.504;2023-04-07T01:01:26;5.90;99.90
34766;DHT22;20984;43.508;1.504;2023-04-07T01:04:04;5.90;99.90
34766;DHT22;20984;43.508;1.504;2023-04-07T01:06:34;5.80;99.90
34766;DHT22;20984;43.508;1.504;2023-04-07T01:09:04;5.80;99.90
34766;DHT22;20984;43.508;1.504;2023-04-07T01:11:39;5.70;99.90
34766;DHT22;20984;43.508;1.504;2023-04-07T01:14:09;5.70;99.90
34766;DHT22;20984;43.508;1.504;2023-04-07T01:16:47;5.60;99.90
34766;DHT22;20984;43.508;1.504;2023-04-07T01:21:58;5.60;99.90
34766;DHT22;20984;43.508;1.504;2023-04-07T01:27:12;5.60;99.90
34766;DHT22;20984;43.508;1.504;2023-04-07T01:29:41;5.60;99.90
34766;DHT22;20984;43.508;1.504;2023-04-07T01:32:12;5.50;99.90
34766;DHT22;20984;43.508;1.504;2023-04-07T01:34:40;5.50;99.90
34766;DHT22;20984;43.508;1.504;2023-04-07T01:37:06;5.50;99.90
34766;DHT22;20984;43.508;1.504;2023-04-07T01:39:33;5.50;99.90
34766;DHT22;20984;43.508;1.504;2023-04-07T01:42:00;5.40;99.90
34766;DHT22;20984;43.508;1.504;2023-04-07T01:44:28;5.40;99.90
34766;DHT22;20984;43.508;1.504;2023-04-07T01:46:55;5.40;99.90
34766;DHT22;20984;43.508;1.504;2023-04-07T01:49:22;5.40;99.90
34766;DHT22;20984;43.508;1.504;2023-04-07T01:51:50;5.40;99.90
34766;DHT22;20984;43.508;1.504;2023-04-07T01:54:16;5.40;99.90
34766;DHT22;20984;43.508;1.504;2023-04-07T01:56:43;5.40;99.90
34766;DHT22;20984;43.508;1.504;2023-04-07T01:59:09;5.40;99.90
34766;DHT22;20984;43.508;1.504;2023-04-07T02:01:35;5.30;99.90
34766;DHT22;20984;43.508;1.504;2023-04-07T02:04:14;5.30;99.90
34766;DHT22;20984;43.508;1.504;2023-04-07T02:06:51;5.30;99.90
34766;DHT22;20984;43.508;1.504;2023-04-07T02:09:19;5.30;99.90
34766;DHT22;20984;43.508;1.504;2023-04-07T02:11:45;5.30;99.90
34766;DHT22;20984;43.508;1.504;2023-04-07T02:14:13;5.20;99.90
34766;DHT22;20984;43.508;1.504;2023-04-07T02:16:40;5.20;99.90
34766;DHT22;20984;43.508;1.504;2023-04-07T02:19:07;5.10;99.90
34766;DHT22;20984;43.508;1.504;2023-04-07T02:21:33;5.10;99.90
34766;DHT22;20984;43.508;1.504;2023-04-07T02:24:01;5.00;99.90
34766;DHT22;20984;43.508;1.504;2023-04-07T02:26:26;5.00;99.90
34766;DHT22;20984;43.508;1.504;2023-04-07T02:28:52;5.00;99.90
34766;DHT22;20984;43.508;1.504;2023-04-07T02:31:18;5.00;99.90
34766;DHT22;20984;43.508;1.504;2023-04-07T02:33:43;5.00;99.90
34766;DHT22;20984;43.508;1.504;2023-04-07T02:36:09;5.00;99.90
34766;DHT22;20984;43.508;1.504;2023-04-07T02:38:35;4.90;99.90
34766;DHT22;20984;43.508;1.504;2023-04-07T02:41:02;4.90;99.90
34766;DHT22;20984;43.508;1.504;2023-04-07T02:43:27;4.90;99.90
34766;DHT22;20984;43.508;1.504;2023-04-07T02:45:53;4.90;99.90
34766;DHT22;20984;43.508;1.504;2023-04-07T02:48:19;4.80;99.90
34766;DHT22;20984;43.508;1.504;2023-04-07T02:50:45;4.80;99.90
34766;DHT22;20984;43.508;1.504;2023-04-07T02:53:10;4.80;99.90
34766;DHT22;20984;43.508;1.504;2023-04-07T02:55:36;4.70;99.90
34766;DHT22;20984;43.508;1.504;2023-04-07T02:58:02;4.70;99.90
34766;DHT22;20984;43.508;1.504;2023-04-07T03:00:27;4.70;99.90
34766;DHT22;20984;43.508;1.504;2023-04-07T03:02:53;4.70;99.90
34766;DHT22;20984;43.508;1.504;2023-04-07T03:05:18;4.70;99.90
34766;DHT22;20984;43.508;1.504;2023-04-07T03:07:44;4.60;99.90
34766;DHT22;20984;43.508;1.504;2023-04-07T03:10:10;4.60;99.90
34766;DHT22;20984;43.508;1.504;2023-04-07T03:12:36;4.60;99.90
34766;DHT22;20984;43.508;1.504;2023-04-07T03:15:02;4.60;99.90
34766;DHT22;20984;43.508;1.504;2023-04-07T03:17:27;4.50;99.90
34766;DHT22;20984;43.508;1.504;2023-04-07T03:19:53;4.50;99.90
34766;DHT22;20984;43.508;1.504;2023-04-07T03:22:19;4.50;99.90
34766;DHT22;20984;43.508;1.504;2023-04-07T03:24:44;4.50;99.90
34766;DHT22;20984;43.508;1.504;2023-04-07T03:27:10;4.50;99.90
34766;DHT22;20984;43.508;1.504;2023-04-07T03:29:37;4.60;99.90
34766;DHT22;20984;43.508;1.504;2023-04-07T03:32:03;4.50;99.90
34766;DHT22;20984;43.508;1.504;2023-04-07T03:34:29;4.50;99.90
34766;DHT22;20984;43.508;1.504;2023-04-07T03:36:54;4.50;99.90
34766;DHT22;20984;43.508;1.504;2023-04-07T03:39:20;4.50;99.90
34766;DHT22;20984;43.508;1.504;2023-04-07T03:41:45;4.40;99.90
34766;DHT22;20984;43.508;1.504;2023-04-07T03:44:11;4.40;99.90
34766;DHT22;20984;43.508;1.504;2023-04-07T03:46:37;4.30;99.90
34766;DHT22;20984;43.508;1.504;2023-04-07T03:49:02;4.30;99.90
34766;DHT22;20984;43.508;1.504;2023-04-07T03:51:28;4.30;99.90
34766;DHT22;20984;43.508;1.504;2023-04-07T03:53:53;4.20;99.90
34766;DHT22;20984;43.508;1.504;2023-04-07T03:56:19;4.20;99.90
34766;DHT22;20984;43.508;1.504;2023-04-07T03:58:45;4.20;99.90
34766;DHT22;20984;43.508;1.504;2023-04-07T04:01:11;4.20;99.90
34766;DHT22;20984;43.508;1.504;2023-04-07T04:03:36;4.10;99.90
34766;DHT22;20984;43.508;1.504;2023-04-07T04:06:02;4.10;99.90
34766;DHT22;20984;43.508;1.504;2023-04-07T04:08:29;4.10;99.90
34766;DHT22;20984;43.508;1.504;2023-04-07T04:10:55;4.00;99.90
34766;DHT22;20984;43.508;1.504;2023-04-07T04:13:21;4.00;99.90
34766;DHT22;20984;43.508;1.504;2023-04-07T04:15:47;4.00;99.90
34766;DHT22;20984;43.508;1.504;2023-04-07T04:18:12;4.00;99.90
34766;DHT22;20984;43.508;1.504;2023-04-07T04:20:38;3.90;99.90
34766;DHT22;20984;43.508;1.504;2023-04-07T04:23:04;3.90;99.90
34766;DHT22;20984;43.508;1.504;2023-04-07T04:25:30;3.90;99.90
34766;DHT22;20984;43.508;1.504;2023-04-07T04:27:55;3.80;99.90
34766;DHT22;20984;43.508;1.504;2023-04-07T04:30:21;3.80;99.90
34766;DHT22;20984;43.508;1.504;2023-04-07T04:32:47;3.80;99.90
34766;DHT22;20984;43.508;1.504;2023-04-07T04:35:12;3.80;99.90
34766;DHT22;20984;43.508;1.504;2023-04-07T04:37:38;3.70;99.90
34766;DHT22;20984;43.508;1.504;2023-04-07T04:40:04;3.70;99.90
34766;DHT22;20984;43.508;1.504;2023-04-07T04:42:33;3.70;99.90
34766;DHT22;20984;43.508;1.504;2023-04-07T04:44:58;3.70;99.90
34766;DHT22;20984;43.508;1.504;2023-04-07T04:47:24;3.60;99.90
34766;DHT22;20984;43.508;1.504;2023-04-07T04:49:50;3.60;99.90
34766;DHT22;20984;43.508;1.504;2023-04-07T04:52:16;3.60;99.90
34766;DHT22;20984;43.508;1.504;2023-04-07T04:54:41;3.60;99.90
34766;DHT22;20984;43.508;1.504;2023-04-07T04:57:07;3.50;99.90
34766;DHT22;20984;43.508;1.504;2023-04-07T04:59:33;3.50;99.90
34766;DHT22;20984;43.508;1.504;2023-04-07T05:01:58;3.50;99.90
34766;DHT22;20984;43.508;1.504;2023-04-07T05:04:24;3.40;99.90
34766;DHT22;20984;43.508;1.504;2023-04-07T05:06:50;3.40;99.90
34766;DHT22;20984;43.508;1.504;2023-04-07T05:09:16;3.40;99.90
34766;DHT22;20984;43.508;1.504;2023-04-07T05:11:42;3.40;99.90
34766;DHT22;20984;43.508;1.504;2023-04-07T05:14:08;3.50;99.90
34766;DHT22;20984;43.508;1.504;2023-04-07T05:16:34;3.50;99.90
34766;DHT22;20984;43.508;1.504;2023-04-07T05:19:00;3.40;99.90
34766;DHT22;20984;43.508;1.504;2023-04-07T05:21:26;3.40;99.90
34766;DHT22;20984;43.508;1.504;2023-04-07T05:23:52;3.50;99.90
34766;DHT22;20984;43.508;1.504;2023-04-07T05:26:18;3.50;99.90
34766;DHT22;20984;43.508;1.504;2023-04-07T05:28:43;3.50;99.90
34766;DHT22;20984;43.508;1.504;2023-04-07T05:31:09;3.50;99.90
34766;DHT22;20984;43.508;1.504;2023-04-07T05:33:35;3.60;99.90
34766;DHT22;20984;43.508;1.504;2023-04-07T05:36:01;3.60;99.90
34766;DHT22;20984;43.508;1.504;2023-04-07T05:38:26;3.60;99.90
34766;DHT22;20984;43.508;1.504;2023-04-07T05:40:52;3.60;99.90
34766;DHT22;20984;43.508;1.504;2023-04-07T05:43:18;3.70;99.90
34766;DHT22;20984;43.508;1.504;2023-04-07T05:45:43;3.70;99.90
34766;DHT22;20984;43.508;1.504;2023-04-07T05:48:09;3.70;99.90
34766;DHT22;20984;43.508;1.504;2023-04-07T05:50:35;3.70;99.90
34766;DHT22;20984;43.508;1.504;2023-04-07T05:53:01;3.80;99.90
34766;DHT22;20984;43.508;1.504;2023-04-07T05:55:27;3.80;99.90
34766;DHT22;20984;43.508;1.504;2023-04-07T05:57:52;3.90;99.90
34766;DHT22;20984;43.508;1.504;2023-04-07T06:00:19;3.90;99.90
34766;DHT22;20984;43.508;1.504;2023-04-07T06:02:45;4.00;99.90
34766;DHT22;20984;43.508;1.504;2023-04-07T06:05:11;4.10;99.90
34766;DHT22;20984;43.508;1.504;2023-04-07T06:07:36;4.10;99.90
34766;DHT22;20984;43.508;1.504;2023-04-07T06:10:02;4.20;99.90
34766;DHT22;20984;43.508;1.504;2023-04-07T06:12:28;4.40;99.90
34766;DHT22;20984;43.508;1.504;2023-04-07T06:14:54;4.50;99.90
34766;DHT22;20984;43.508;1.504;2023-04-07T06:17:21;4.50;99.90
34766;DHT22;20984;43.508;1.504;2023-04-07T06:19:46;4.60;99.90
34766;DHT22;20984;43.508;1.504;2023-04-07T06:22:12;4.70;99.90
34766;DHT22;20984;43.508;1.504;2023-04-07T06:24:38;4.70;99.90
34766;DHT22;20984;43.508;1.504;2023-04-07T06:27:04;4.80;99.90
34766;DHT22;20984;43.508;1.504;2023-04-07T06:29:31;4.90;99.90
34766;DHT22;20984;43.508;1.504;2023-04-07T06:31:57;5.00;99.90
34766;DHT22;20984;43.508;1.504;2023-04-07T06:34:22;5.10;99.90
34766;DHT22;20984;43.508;1.504;2023-04-07T06:36:48;5.10;99.90
34766;DHT22;20984;43.508;1.504;2023-04-07T06:39:14;5.10;99.90
34766;DHT22;20984;43.508;1.504;2023-04-07T06:41:39;5.20;99.90
34766;DHT22;20984;43.508;1.504;2023-04-07T06:44:08;5.30;99.90
34766;DHT22;20984;43.508;1.504;2023-04-07T06:46:35;5.40;99.90
34766;DHT22;20984;43.508;1.504;2023-04-07T06:49:01;5.60;99.90
34766;DHT22;20984;43.508;1.504;2023-04-07T06:51:28;5.80;99.90
34766;DHT22;20984;43.508;1.504;2023-04-07T06:53:54;5.80;99.90
34766;DHT22;20984;43.508;1.504;2023-04-07T06:56:22;5.90;99.90
34766;DHT22;20984;43.508;1.504;2023-04-07T06:58:47;6.10;99.90
34766;DHT22;20984;43.508;1.504;2023-04-07T07:01:13;6.20;99.90
34766;DHT22;20984;43.508;1.504;2023-04-07T07:03:38;6.60;99.90
34766;DHT22;20984;43.508;1.504;2023-04-07T07:06:04;6.80;99.90
34766;DHT22;20984;43.508;1.504;2023-04-07T07:08:30;6.90;99.90
34766;DHT22;20984;43.508;1.504;2023-04-07T07:10:56;7.10;99.90
34766;DHT22;20984;43.508;1.504;2023-04-07T07:13:24;7.10;99.90
34766;DHT22;20984;43.508;1.504;2023-04-07T07:15:50;7.20;99.90
34766;DHT22;20984;43.508;1.504;2023-04-07T07:18:17;7.50;99.90
34766;DHT22;20984;43.508;1.504;2023-04-07T07:20:43;7.50;99.90
34766;DHT22;20984;43.508;1.504;2023-04-07T07:23:08;7.70;99.90
34766;DHT22;20984;43.508;1.504;2023-04-07T07:25:34;7.80;99.90
34766;DHT22;20984;43.508;1.504;2023-04-07T07:28:00;8.00;99.90
34766;DHT22;20984;43.508;1.504;2023-04-07T07:30:26;8.20;99.90
34766;DHT22;20984;43.508;1.504;2023-04-07T07:32:52;8.40;99.90
34766;DHT22;20984;43.508;1.504;2023-04-07T07:35:19;8.50;99.90
34766;DHT22;20984;43.508;1.504;2023-04-07T07:37:44;8.50;99.90
34766;DHT22;20984;43.508;1.504;2023-04-07T07:40:10;8.50;99.90
34766;DHT22;20984;43.508;1.504;2023-04-07T07:42:37;8.60;99.90
34766;DHT22;20984;43.508;1.504;2023-04-07T07:45:03;8.80;99.90
34766;DHT22;20984;43.508;1.504;2023-04-07T07:47:29;9.00;99.90
34766;DHT22;20984;43.508;1.504;2023-04-07T07:49:54;9.10;99.90
34766;DHT22;20984;43.508;1.504;2023-04-07T07:52:20;9.30;99.90
34766;DHT22;20984;43.508;1.504;2023-04-07T07:54:47;9.40;99.90
34766;DHT22;20984;43.508;1.504;2023-04-07T07:57:13;9.70;99.90
34766;DHT22;20984;43.508;1.504;2023-04-07T07:59:38;9.90;99.90
34766;DHT22;20984;43.508;1.504;2023-04-07T08:02:08;10.10;99.90
34766;DHT22;20984;43.508;1.504;2023-04-07T08:04:34;10.30;99.90
34766;DHT22;20984;43.508;1.504;2023-04-07T08:07:01;10.40;99.90
34766;DHT22;20984;43.508;1.504;2023-04-07T08:09:26;10.60;99.90
34766;DHT22;20984;43.508;1.504;2023-04-07T08:11:52;10.80;99.90
34766;DHT22;20984;43.508;1.504;2023-04-07T08:14:18;10.80;99.90
34766;DHT22;20984;43.508;1.504;2023-04-07T08:16:44;10.90;99.90
34766;DHT22;20984;43.508;1.504;2023-04-07T08:19:11;11.00;99.90
34766;DHT22;20984;43.508;1.504;2023-04-07T08:21:38;11.10;99.90
34766;DHT22;20984;43.508;1.504;2023-04-07T08:24:04;11.20;99.90
34766;DHT22;20984;43.508;1.504;2023-04-07T08:26:30;11.20;99.90
34766;DHT22;20984;43.508;1.504;2023-04-07T08:28:56;11.30;99.90
34766;DHT22;20984;43.508;1.504;2023-04-07T08:31:22;11.30;99.90
34766;DHT22;20984;43.508;1.504;2023-04-07T08:33:48;11.40;99.90
34766;DHT22;20984;43.508;1.504;2023-04-07T08:36:19;11.40;99.90
34766;DHT22;20984;43.508;1.504;2023-04-07T08:38:44;11.30;99.90
34766;DHT22;20984;43.508;1.504;2023-04-07T08:41:12;11.40;99.90
34766;DHT22;20984;43.508;1.504;2023-04-07T08:43:39;11.50;99.90
34766;DHT22;20984;43.508;1.504;2023-04-07T08:46:08;11.50;99.90
34766;DHT22;20984;43.508;1.504;2023-04-07T08:48:37;11.60;99.90
34766;DHT22;20984;43.508;1.504;2023-04-07T08:51:05;11.70;99.90
34766;DHT22;20984;43.508;1.504;2023-04-07T08:53:48;11.70;99.90
34766;DHT22;20984;43.508;1.504;2023-04-07T08:56:17;11.70;99.90
34766;DHT22;20984;43.508;1.504;2023-04-07T08:58:44;11.80;99.90
34766;DHT22;20984;43.508;1.504;2023-04-07T09:01:10;11.80;99.90
34766;DHT22;20984;43.508;1.504;2023-04-07T09:03:37;11.90;99.90
34766;DHT22;20984;43.508;1.504;2023-04-07T09:06:03;12.00;99.90
34766;DHT22;20984;43.508;1.504;2023-04-07T09:08:29;12.10;99.90
34766;DHT22;20984;43.508;1.504;2023-04-07T09:10:58;12.20;99.90
34766;DHT22;20984;43.508;1.504;2023-04-07T09:13:24;12.30;99.90
34766;DHT22;20984;43.508;1.504;2023-04-07T09:15:50;12.30;99.90
34766;DHT22;20984;43.508;1.504;2023-04-07T09:18:16;12.40;99.90
34766;DHT22;20984;43.508;1.504;2023-04-07T09:21:00;12.60;99.90
34766;DHT22;20984;43.508;1.504;2023-04-07T09:23:37;12.80;99.90
34766;DHT22;20984;43.508;1.504;2023-04-07T09:28:45;13.10;99.90
34766;DHT22;20984;43.508;1.504;2023-04-07T09:31:11;13.20;99.90
34766;DHT22;20984;43.508;1.504;2023-04-07T09:33:37;13.20;99.90
34766;DHT22;20984;43.508;1.504;2023-04-07T09:36:04;13.30;99.90
34766;DHT22;20984;43.508;1.504;2023-04-07T09:38:41;13.50;99.90
34766;DHT22;20984;43.508;1.504;2023-04-07T09:41:12;13.70;99.90
34766;DHT22;20984;43.508;1.504;2023-04-07T09:43:43;13.70;99.90
34766;DHT22;20984;43.508;1.504;2023-04-07T09:46:10;13.80;99.90
34766;DHT22;20984;43.508;1.504;2023-04-07T09:48:36;13.80;99.90
34766;DHT22;20984;43.508;1.504;2023-04-07T09:51:16;13.70;99.90
34766;DHT22;20984;43.508;1.504;2023-04-07T09:53:49;13.90;99.90
34766;DHT22;20984;43.508;1.504;2023-04-07T09:56:19;14.00;99.90
34766;DHT22;20984;43.508;1.504;2023-04-07T09:58:48;14.00;99.90
34766;DHT22;20984;43.508;1.504;2023-04-07T10:01:16;14.10;99.90
34766;DHT22;20984;43.508;1.504;2023-04-07T10:03:43;14.30;99.90
34766;DHT22;20984;43.508;1.504;2023-04-07T10:06:10;14.30;99.90
34766;DHT22;20984;43.508;1.504;2023-04-07T10:08:38;14.60;99.90
34766;DHT22;20984;43.508;1.504;2023-04-07T10:11:04;14.80;99.90
34766;DHT22;20984;43.508;1.504;2023-04-07T10:13:35;14.80;99.90
34766;DHT22;20984;43.508;1.504;2023-04-07T10:16:02;14.70;99.90
34766;DHT22;20984;43.508;1.504;2023-04-07T10:18:30;14.80;99.90
34766;DHT22;20984;43.508;1.504;2023-04-07T10:20:57;14.80;99.90
34766;DHT22;20984;43.508;1.504;2023-04-07T10:25:57;15.00;99.90
34766;DHT22;20984;43.508;1.504;2023-04-07T10:28:25;15.10;99.90
34766;DHT22;20984;43.508;1.504;2023-04-07T10:30:52;15.10;99.90
34766;DHT22;20984;43.508;1.504;2023-04-07T10:33:46;15.10;99.90
34766;DHT22;20984;43.508;1.504;2023-04-07T10:36:12;15.20;99.90
34766;DHT22;20984;43.508;1.504;2023-04-07T10:38:37;15.30;99.90
34766;DHT22;20984;43.508;1.504;2023-04-07T10:41:37;15.50;99.20
34766;DHT22;20984;43.508;1.504;2023-04-07T10:44:43;15.70;98.30
34766;DHT22;20984;43.508;1.504;2023-04-07T10:47:02;15.90;98.00
34766;DHT22;20984;43.508;1.504;2023-04-07T10:49:29;15.90;96.00
34766;DHT22;20984;43.508;1.504;2023-04-07T10:54:39;16.10;97.40
34766;DHT22;20984;43.508;1.504;2023-04-07T10:57:13;16.20;93.90
34766;DHT22;20984;43.508;1.504;2023-04-07T11:02:37;16.60;91.90
34766;DHT22;20984;43.508;1.504;2023-04-07T11:05:03;16.70;91.10
34766;DHT22;20984;43.508;1.504;2023-04-07T11:07:49;16.70;90.80
34766;DHT22;20984;43.508;1.504;2023-04-07T11:10:16;16.60;89.40
34766;DHT22;20984;43.508;1.504;2023-04-07T11:12:43;16.60;90.40
34766;DHT22;20984;43.508;1.504;2023-04-07T11:15:19;16.70;90.80
34766;DHT22;20984;43.508;1.504;2023-04-07T11:18:04;16.80;91.20
34766;DHT22;20984;43.508;1.504;2023-04-07T11:20:47;16.80;90.40
34766;DHT22;20984;43.508;1.504;2023-04-07T11:23:14;16.80;90.30
34766;DHT22;20984;43.508;1.504;2023-04-07T11:25:45;16.80;88.60
34766;DHT22;20984;43.508;1.504;2023-04-07T11:28:12;16.80;89.80
34766;DHT22;20984;43.508;1.504;2023-04-07T11:30:43;16.80;89.30
34766;DHT22;20984;43.508;1.504;2023-04-07T11:33:09;16.90;86.80
34766;DHT22;20984;43.508;1.504;2023-04-07T11:35:46;16.90;86.90
34766;DHT22;20984;43.508;1.504;2023-04-07T11:38:12;16.90;88.10
34766;DHT22;20984;43.508;1.504;2023-04-07T11:40:38;17.00;87.10
34766;DHT22;20984;43.508;1.504;2023-04-07T11:43:26;17.10;87.00
34766;DHT22;20984;43.508;1.504;2023-04-07T11:48:38;17.10;89.30
34766;DHT22;20984;43.508;1.504;2023-04-07T11:51:05;17.10;86.60
34766;DHT22;20984;43.508;1.504;2023-04-07T11:53:35;17.10;88.30
34766;DHT22;20984;43.508;1.504;2023-04-07T11:56:07;17.20;88.20
34766;DHT22;20984;43.508;1.504;2023-04-07T11:58:35;17.30;88.00
34766;DHT22;20984;43.508;1.504;2023-04-07T12:01:05;17.20;89.10
34766;DHT22;20984;43.508;1.504;2023-04-07T12:03:35;17.30;87.20
34766;DHT22;20984;43.508;1.504;2023-04-07T12:06:02;17.40;84.30
34766;DHT22;20984;43.508;1.504;2023-04-07T12:08:42;17.50;84.80
34766;DHT22;20984;43.508;1.504;2023-04-07T12:11:08;17.60;83.80
34766;DHT22;20984;43.508;1.504;2023-04-07T12:13:37;17.70;86.90
34766;DHT22;20984;43.508;1.504;2023-04-07T12:16:03;17.80;87.30
34766;DHT22;20984;43.508;1.504;2023-04-07T12:18:29;17.90;83.20
34766;DHT22;20984;43.508;1.504;2023-04-07T12:20:55;17.70;84.50
34766;DHT22;20984;43.508;1.504;2023-04-07T12:23:22;17.70;85.80
34766;DHT22;20984;43.508;1.504;2023-04-07T12:25:47;17.90;90.00
34766;DHT22;20984;43.508;1.504;2023-04-07T12:28:13;18.10;86.00
34766;DHT22;20984;43.508;1.504;2023-04-07T12:30:39;18.10;87.00
34766;DHT22;20984;43.508;1.504;2023-04-07T12:33:05;18.10;85.40
34766;DHT22;20984;43.508;1.504;2023-04-07T12:35:30;18.20;89.20
34766;DHT22;20984;43.508;1.504;2023-04-07T12:37:56;18.20;84.90
34766;DHT22;20984;43.508;1.504;2023-04-07T12:40:25;18.20;88.00
34766;DHT22;20984;43.508;1.504;2023-04-07T12:42:51;18.30;84.40
34766;DHT22;20984;43.508;1.504;2023-04-07T12:45:17;18.30;82.70
34766;DHT22;20984;43.508;1.504;2023-04-07T12:47:43;18.20;87.20
34766;DHT22;20984;43.508;1.504;2023-04-07T12:50:09;18.30;87.00
34766;DHT22;20984;43.508;1.504;2023-04-07T12:52:35;18.40;84.50
34766;DHT22;20984;43.508;1.504;2023-04-07T12:55:01;18.50;84.70
34766;DHT22;20984;43.508;1.504;2023-04-07T12:57:27;18.70;85.80
34766;DHT22;20984;43.508;1.504;2023-04-07T12:59:53;18.70;82.70
34766;DHT22;20984;43.508;1.504;2023-04-07T13:02:19;18.80;83.30
34766;DHT22;20984;43.508;1.504;2023-04-07T13:04:45;18.90;81.90
34766;DHT22;20984;43.508;1.504;2023-04-07T13:07:12;18.90;80.20
34766;DHT22;20984;43.508;1.504;2023-04-07T13:09:38;18.90;83.40
34766;DHT22;20984;43.508;1.504;2023-04-07T13:12:10;19.00;80.80
34766;DHT22;20984;43.508;1.504;2023-04-07T13:14:37;19.00;80.60
34766;DHT22;20984;43.508;1.504;2023-04-07T13:17:04;19.00;80.30
34766;DHT22;20984;43.508;1.504;2023-04-07T13:19:29;19.00;79.90
34766;DHT22;20984;43.508;1.504;2023-04-07T13:21:55;19.20;80.80
34766;DHT22;20984;43.508;1.504;2023-04-07T13:24:21;19.20;79.10
34766;DHT22;20984;43.508;1.504;2023-04-07T13:26:47;19.30;77.50
34766;DHT22;20984;43.508;1.504;2023-04-07T13:29:13;19.20;77.90
34766;DHT22;20984;43.508;1.504;2023-04-07T13:31:38;19.20;78.10
34766;DHT22;20984;43.508;1.504;2023-04-07T13:34:04;19.30;79.10
34766;DHT22;20984;43.508;1.504;2023-04-07T13:36:30;19.30;76.60
34766;DHT22;20984;43.508;1.504;2023-04-07T13:38:56;19.40;77.20
34766;DHT22;20984;43.508;1.504;2023-04-07T13:41:22;19.30;77.20
34766;DHT22;20984;43.508;1.504;2023-04-07T13:43:48;19.30;77.10
34766;DHT22;20984;43.508;1.504;2023-04-07T13:46:13;19.40;78.10
34766;DHT22;20984;43.508;1.504;2023-04-07T13:48:40;19.40;80.40
34766;DHT22;20984;43.508;1.504;2023-04-07T13:51:06;19.50;76.40
34766;DHT22;20984;43.508;1.504;2023-04-07T13:53:32;19.60;76.20
34766;DHT22;20984;43.508;1.504;2023-04-07T13:55:57;19.70;76.50
34766;DHT22;20984;43.508;1.504;2023-04-07T13:58:24;19.70;73.40
34766;DHT22;20984;43.508;1.504;2023-04-07T14:00:49;19.70;75.10
34766;DHT22;20984;43.508;1.504;2023-04-07T14:03:15;19.70;74.60
34766;DHT22;20984;43.508;1.504;2023-04-07T14:05:41;19.70;76.00
34766;DHT22;20984;43.508;1.504;2023-04-07T14:08:07;19.90;74.70
34766;DHT22;20984;43.508;1.504;2023-04-07T14:10:32;20.10;73.60
34766;DHT22;20984;43.508;1.504;2023-04-07T14:12:59;20.30;74.20
34766;DHT22;20984;43.508;1.504;2023-04-07T14:15:24;20.40;74.80
34766;DHT22;20984;43.508;1.504;2023-04-07T14:17:50;20.40;72.60
34766;DHT22;20984;43.508;1.504;2023-04-07T14:20:16;20.20;71.30
34766;DHT22;20984;43.508;1.504;2023-04-07T14:22:42;20.00;72.50
34766;DHT22;20984;43.508;1.504;2023-04-07T14:25:07;20.00;72.60
34766;DHT22;20984;43.508;1.504;2023-04-07T14:27:33;20.10;74.90
34766;DHT22;20984;43.508;1.504;2023-04-07T14:29:59;20.10;74.00
34766;DHT22;20984;43.508;1.504;2023-04-07T14:32:25;20.10;73.40
34766;DHT22;20984;43.508;1.504;2023-04-07T14:34:54;20.10;71.80
34766;DHT22;20984;43.508;1.504;2023-04-07T14:37:19;20.10;72.80
34766;DHT22;20984;43.508;1.504;2023-04-07T14:39:48;20.20;72.70
34766;DHT22;20984;43.508;1.504;2023-04-07T14:42:14;20.30;74.50
34766;DHT22;20984;43.508;1.504;2023-04-07T14:44:40;20.40;74.80
34766;DHT22;20984;43.508;1.504;2023-04-07T14:47:06;20.60;74.40
34766;DHT22;20984;43.508;1.504;2023-04-07T14:49:31;20.80;71.50
34766;DHT22;20984;43.508;1.504;2023-04-07T14:51:57;21.20;70.50
34766;DHT22;20984;43.508;1.504;2023-04-07T14:54:23;21.80;68.40
34766;DHT22;20984;43.508;1.504;2023-04-07T14:56:48;22.70;65.00
34766;DHT22;20984;43.508;1.504;2023-04-07T14:59:15;23.40;61.90
34766;DHT22;20984;43.508;1.504;2023-04-07T15:01:41;23.40;62.40
34766;DHT22;20984;43.508;1.504;2023-04-07T15:04:06;24.40;61.50
34766;DHT22;20984;43.508;1.504;2023-04-07T15:06:32;24.80;61.20
34766;DHT22;20984;43.508;1.504;2023-04-07T15:08:58;25.30;58.80
34766;DHT22;20984;43.508;1.504;2023-04-07T15:11:23;25.30;58.90
34766;DHT22;20984;43.508;1.504;2023-04-07T15:13:50;25.30;57.90
34766;DHT22;20984;43.508;1.504;2023-04-07T15:16:16;25.10;56.50
34766;DHT22;20984;43.508;1.504;2023-04-07T15:18:44;25.20;56.90
34766;DHT22;20984;43.508;1.504;2023-04-07T15:21:12;25.20;57.70
34766;DHT22;20984;43.508;1.504;2023-04-07T15:23:39;25.60;57.00
34766;DHT22;20984;43.508;1.504;2023-04-07T15:26:06;26.10;55.90
34766;DHT22;20984;43.508;1.504;2023-04-07T15:28:32;25.40;56.20
34766;DHT22;20984;43.508;1.504;2023-04-07T15:30:59;25.00;55.30
34766;DHT22;20984;43.508;1.504;2023-04-07T15:33:26;25.30;56.60
34766;DHT22;20984;43.508;1.504;2023-04-07T15:35:52;25.80;55.40
34766;DHT22;20984;43.508;1.504;2023-04-07T15:38:17;26.50;53.30
34766;DHT22;20984;43.508;1.504;2023-04-07T15:40:43;26.90;53.00
34766;DHT22;20984;43.508;1.504;2023-04-07T15:43:09;28.00;52.30
34766;DHT22;20984;43.508;1.504;2023-04-07T15:45:42;28.40;51.10
34766;DHT22;20984;43.508;1.504;2023-04-07T15:48:09;28.40;49.20
34766;DHT22;20984;43.508;1.504;2023-04-07T15:50:35;28.50;49.10
34766;DHT22;20984;43.508;1.504;2023-04-07T15:53:02;28.20;48.70
34766;DHT22;20984;43.508;1.504;2023-04-07T15:55:29;28.20;49.40